createdAt,value
2023-04-25T00:01:50.568Z,100800.38
2023-04-25T00:04:18.499Z,100805.94
2023-04-25T00:06:47.170Z,100808.59
2023-04-25T00:09:16.414Z,100812.50
2023-04-25T00:11:45.697Z,100817.84
2023-04-25T00:14:14.880Z,100823.91
2023-04-25T00:16:44.211Z,100825.66
2023-04-25T00:19:13.510Z,100824.38
2023-04-25T00:21:42.342Z,100825.66
2023-04-25T00:24:11.220Z,100826.88
2023-04-25T00:26:40.596Z,100835.59
2023-04-25T00:29:09.871Z,100834.88
2023-04-25T00:31:39.750Z,100841.22
2023-04-25T00:34:08.951Z,100846.56
2023-04-25T00:36:38.316Z,100841.22
2023-04-25T00:39:06.799Z,100841.22
2023-04-25T00:41:35.672Z,100839.78
2023-04-25T00:44:04.452Z,100842.47
2023-04-25T00:46:33.411Z,100840.31
2023-04-25T00:49:02.615Z,100838.38
2023-04-25T00:51:30.984Z,100836.91
2023-04-25T00:53:59.889Z,100842.25
2023-04-25T00:56:28.639Z,100840.81
2023-04-25T00:58:57.868Z,100844.72
2023-04-25T01:01:26.355Z,100837.97
2023-04-25T01:03:55.716Z,100839.38
2023-04-25T01:06:25.341Z,100843.28
2023-04-25T01:08:53.773Z,100847.91
2023-04-25T01:11:22.769Z,100840.41
2023-04-25T01:13:51.923Z,100841.84
2023-04-25T01:16:21.632Z,100841.09
2023-04-25T01:18:50.530Z,100844.31
2023-04-25T01:21:19.006Z,100838.97
2023-04-25T01:23:48.895Z,100843.06
2023-04-25T01:26:17.243Z,100851.06
2023-04-25T01:28:46.383Z,100848.91
2023-04-25T01:31:15.273Z,100853.56
2023-04-25T01:33:44.926Z,100852.09
2023-04-25T01:36:13.052Z,100847.50
2023-04-25T01:38:41.252Z,100849.44
2023-04-25T01:41:10.113Z,100857.44
2023-04-25T01:43:38.426Z,100856.00
2023-04-25T01:46:07.529Z,100864.22
2023-04-25T01:48:36.946Z,100863.47
2023-04-25T01:51:05.832Z,100874.16
2023-04-25T01:53:35.319Z,100870.75
2023-04-25T01:56:05.831Z,100874.88
2023-04-25T01:58:36.678Z,100881.41
2023-04-25T02:01:12.737Z,100871.47
2023-04-25T02:03:47.473Z,100878.75
2023-04-25T02:06:28.075Z,100890.16
2023-04-25T02:08:58.724Z,100885.31
2023-04-25T02:11:27.210Z,100885.31
2023-04-25T02:14:16.977Z,100887.97
2023-04-25T02:16:51.739Z,100894.00
2023-04-25T02:19:20.573Z,100893.31
2023-04-25T02:21:49.443Z,100891.16
2023-04-25T02:24:18.612Z,100895.78
2023-04-25T02:26:47.050Z,100895.78
2023-04-25T02:29:15.535Z,100895.78
2023-04-25T02:31:44.410Z,100894.34
2023-04-25T02:34:13.300Z,100900.41
2023-04-25T02:36:42.575Z,100899.66
2023-04-25T02:39:11.421Z,100892.88
2023-04-25T02:41:39.842Z,100894.84
2023-04-25T02:44:09.113Z,100898.22
2023-04-25T02:46:40.034Z,100892.69
2023-04-25T02:49:08.099Z,100895.34
2023-04-25T02:51:36.637Z,100895.34
2023-04-25T02:54:05.699Z,100899.25
2023-04-25T02:56:39.195Z,100907.25
2023-04-25T02:59:14.635Z,100905.31
2023-04-25T03:01:43.039Z,100899.25
2023-04-25T03:04:11.849Z,100899.25
2023-04-25T03:06:40.052Z,100897.81
2023-04-25T03:09:08.300Z,100901.19
2023-04-25T03:11:36.662Z,100902.44
2023-04-25T03:14:05.614Z,100906.34
2023-04-25T03:16:34.882Z,100901.00
2023-04-25T03:19:03.713Z,100904.19
2023-04-25T03:21:32.616Z,100909.50
2023-04-25T03:24:02.208Z,100897.38
2023-04-25T03:26:29.982Z,100913.38
2023-04-25T03:28:58.932Z,100909.28
2023-04-25T03:31:27.948Z,100905.91
2023-04-25T03:33:56.989Z,100917.28
2023-04-25T03:36:25.548Z,100905.19
2023-04-25T03:38:54.746Z,100914.41
2023-04-25T03:41:24.011Z,100910.31
2023-04-25T03:43:57.061Z,100910.31
2023-04-25T03:46:25.622Z,100916.38
2023-04-25T03:48:54.526Z,100911.53
2023-04-25T03:51:28.533Z,100932.13
2023-04-25T03:53:56.861Z,100928.25
2023-04-25T03:56:54.870Z,100924.88
2023-04-25T03:59:26.802Z,100924.66
2023-04-25T04:01:55.542Z,100933.41
2023-04-25T04:04:24.556Z,100927.34
2023-04-25T04:06:53.626Z,100928.53
2023-04-25T04:09:30.936Z,100923.22
2023-04-25T04:12:04.560Z,100921.78
2023-04-25T04:14:33.927Z,100932.44
2023-04-25T04:17:02.263Z,100935.09
2023-04-25T04:19:31.893Z,100939.19
2023-04-25T04:22:10.502Z,100944.53
2023-04-25T04:24:39.770Z,100948.66
2023-04-25T04:27:09.653Z,100939.19
2023-04-25T04:29:48.053Z,100946.00
2023-04-25T04:32:23.224Z,100949.88
2023-04-25T04:34:52.066Z,100947.91
2023-04-25T04:37:22.570Z,100949.88
2023-04-25T04:39:50.649Z,100960.53
2023-04-25T04:42:26.218Z,100960.53
2023-04-25T04:45:02.484Z,100965.16
2023-04-25T04:47:46.715Z,100972.63
2023-04-25T04:50:51.003Z,100963.41
2023-04-25T04:53:44.080Z,100972.81
2023-04-25T04:56:21.518Z,100971.59
2023-04-25T04:58:55.417Z,100966.25
2023-04-25T05:01:40.814Z,100969.16
2023-04-25T05:04:24.170Z,100977.16
2023-04-25T05:07:13.426Z,100988.00
2023-04-25T05:10:04.133Z,100985.56
2023-04-25T05:12:37.109Z,100994.28
2023-04-25T05:15:16.701Z,100993.75
2023-04-25T05:18:11.583Z,101005.88
2023-04-25T05:20:48.104Z,101001.25
2023-04-25T05:23:26.140Z,101004.13
2023-04-25T05:26:13.560Z,101010.16
2023-04-25T05:28:54.721Z,101005.06
2023-04-25T05:31:44.162Z,101015.94
2023-04-25T05:34:15.629Z,101019.53
2023-04-25T05:37:06.571Z,101025.03
2023-04-25T05:39:41.693Z,101032.75
2023-04-25T05:42:28.123Z,101024.97
2023-04-25T05:45:23.100Z,101026.59
2023-04-25T05:48:28.118Z,101030.41
2023-04-25T05:51:05.606Z,101040.75
2023-04-25T05:53:53.627Z,101037.31
2023-04-25T05:56:23.199Z,101039.16
2023-04-25T05:58:53.951Z,101034.00
2023-04-25T06:01:22.235Z,101041.19
2023-04-25T06:03:51.631Z,101045.56
2023-04-25T06:06:20.833Z,101052.50
2023-04-25T06:08:49.254Z,101047.59
2023-04-25T06:11:18.085Z,101058.66
2023-04-25T06:13:47.704Z,101065.88
2023-04-25T06:16:18.105Z,101060.72
2023-04-25T06:18:47.039Z,101072.03
2023-04-25T06:21:17.048Z,101064.44
2023-04-25T06:23:46.595Z,101072.13
2023-04-25T06:26:21.719Z,101064.03
2023-04-25T06:28:51.241Z,101073.84
2023-04-25T06:31:20.457Z,101073.03
2023-04-25T06:33:51.137Z,101071.00
2023-04-25T06:36:19.986Z,101080.63
2023-04-25T06:38:56.351Z,101087.09
2023-04-25T06:41:25.187Z,101085.34
2023-04-25T06:43:55.449Z,101087.19
2023-04-25T06:46:29.124Z,101082.97
2023-04-25T06:48:59.919Z,101088.41
2023-04-25T06:51:28.381Z,101090.03
2023-04-25T06:54:02.431Z,101086.53
2023-04-25T06:56:38.049Z,101096.38
2023-04-25T06:59:12.510Z,101094.28
2023-04-25T07:01:42.504Z,101099.00
2023-04-25T07:04:23.791Z,101107.81
2023-04-25T07:07:00.024Z,101108.41
2023-04-25T07:09:39.597Z,101101.72
2023-04-25T07:12:08.634Z,101095.53
2023-04-25T07:14:37.237Z,101104.66
2023-04-25T07:17:06.518Z,101098.44
2023-04-25T07:19:35.403Z,101105.47
2023-04-25T07:22:15.584Z,101106.34
2023-04-25T07:24:44.660Z,101111.38
2023-04-25T07:27:15.428Z,101120.00
2023-04-25T07:29:55.226Z,101118.94
2023-04-25T07:32:25.220Z,101120.56
2023-04-25T07:34:54.141Z,101123.13
2023-04-25T07:37:22.084Z,101122.13
2023-04-25T07:40:04.373Z,101132.38
2023-04-25T07:42:33.943Z,101128.00
2023-04-25T07:45:03.418Z,101128.75
2023-04-25T07:47:32.508Z,101135.28
2023-04-25T07:50:00.826Z,101143.25
2023-04-25T07:52:28.531Z,101143.72
2023-04-25T07:55:04.063Z,101146.25
2023-04-25T07:57:43.136Z,101154.56
2023-04-25T08:00:12.753Z,101154.22
2023-04-25T08:02:49.039Z,101156.03
2023-04-25T08:05:22.096Z,101158.56
2023-04-25T08:08:00.122Z,101167.16
2023-04-25T08:10:29.203Z,101162.16
2023-04-25T08:12:57.975Z,101168.56
2023-04-25T08:15:26.947Z,101171.78
2023-04-25T08:17:56.174Z,101172.84
2023-04-25T08:20:24.972Z,101175.34
2023-04-25T08:22:56.320Z,101174.25
2023-04-25T08:25:36.081Z,101181.03
2023-04-25T08:28:05.300Z,101185.44
2023-04-25T08:30:33.778Z,101185.63
2023-04-25T08:33:02.879Z,101190.06
2023-04-25T08:35:51.370Z,101194.94
2023-04-25T08:38:20.593Z,101200.38
2023-04-25T08:40:49.036Z,101190.03
2023-04-25T08:43:18.986Z,101204.38
2023-04-25T08:45:47.563Z,101201.31
2023-04-25T08:48:25.956Z,101215.09
2023-04-25T08:50:55.003Z,101223.22
2023-04-25T08:53:25.967Z,101218.13
2023-04-25T08:55:55.069Z,101237.16
2023-04-25T08:58:23.986Z,101255.13
2023-04-25T09:00:52.964Z,101245.88
2023-04-25T09:03:24.061Z,101247.31
2023-04-25T09:05:53.341Z,101254.81
2023-04-25T09:08:23.024Z,101254.78
2023-04-25T09:10:52.351Z,101258.34
2023-04-25T09:13:21.660Z,101267.28
2023-04-25T09:16:16.906Z,101270.69
2023-04-25T09:19:17.538Z,101273.75
2023-04-25T09:21:46.701Z,101279.34
2023-04-25T09:24:15.820Z,101277.66
2023-04-25T09:26:44.831Z,101286.59
2023-04-25T09:29:14.273Z,101279.16
2023-04-25T09:31:43.429Z,101280.09
2023-04-25T09:34:12.700Z,101281.25
2023-04-25T09:36:45.340Z,101282.59
2023-04-25T09:39:42.832Z,101285.84
2023-04-25T09:42:15.688Z,101287.28
2023-04-25T09:44:44.799Z,101278.97
2023-04-25T09:47:13.355Z,101282.97
2023-04-25T09:49:42.407Z,101288.53
2023-04-25T09:52:13.093Z,101292.34
2023-04-25T09:54:50.005Z,101284.16
2023-04-25T09:57:25.313Z,101286.28
2023-04-25T09:59:56.798Z,101293.59
2023-04-25T10:02:28.114Z,101294.97
2023-04-25T10:05:03.480Z,101292.25
2023-04-25T10:07:39.429Z,101301.16
2023-04-25T10:10:13.127Z,101303.97
2023-04-25T10:12:42.373Z,101303.63
2023-04-25T10:15:11.424Z,101311.72
2023-04-25T10:17:39.605Z,101321.00
2023-04-25T10:20:09.795Z,101332.66
2023-04-25T10:22:39.164Z,101330.34
2023-04-25T10:25:08.488Z,101327.44
2023-04-25T10:27:37.219Z,101328.25
2023-04-25T10:30:06.468Z,101326.97
2023-04-25T10:32:35.297Z,101336.56
2023-04-25T10:35:04.347Z,101332.16
2023-04-25T10:37:33.303Z,101329.19
2023-04-25T10:40:02.126Z,101332.03
2023-04-25T10:42:30.916Z,101343.75
2023-04-25T10:45:00.260Z,101335.88
2023-04-25T10:47:29.678Z,101337.31
2023-04-25T10:49:58.507Z,101341.41
2023-04-25T10:52:27.461Z,101338.19
2023-04-25T10:54:56.023Z,101342.84
2023-04-25T10:57:24.474Z,101344.09
2023-04-25T10:59:52.544Z,101350.75
2023-04-25T11:02:21.908Z,101348.88
2023-04-25T11:04:51.302Z,101341.06
2023-04-25T11:07:20.214Z,101342.25
2023-04-25T11:09:49.507Z,101349.78
2023-04-25T11:12:18.777Z,101348.47
2023-04-25T11:14:48.288Z,101349.22
2023-04-25T11:17:17.760Z,101349.63
2023-04-25T11:19:46.624Z,101353.00
2023-04-25T11:22:15.922Z,101342.94
2023-04-25T11:24:45.224Z,101340.53
2023-04-25T11:27:14.508Z,101341.72
2023-04-25T11:29:43.458Z,101340.56
2023-04-25T11:32:13.186Z,101347.59
2023-04-25T11:34:42.894Z,101347.53
2023-04-25T11:37:12.352Z,101349.72
2023-04-25T11:39:41.949Z,101341.88
2023-04-25T11:42:13.873Z,101357.31
2023-04-25T11:44:43.020Z,101352.22
2023-04-25T11:47:11.984Z,101374.66
2023-04-25T11:49:41.619Z,101384.78
2023-04-25T11:52:10.703Z,101391.13
2023-04-25T11:54:39.588Z,101381.28
2023-04-25T11:57:08.409Z,101390.88
2023-04-25T11:59:37.659Z,101397.59
2023-04-25T12:02:06.926Z,101400.47
2023-04-25T12:04:36.318Z,101398.31
2023-04-25T12:07:06.036Z,101400.72
2023-04-25T12:09:35.030Z,101398.25
2023-04-25T12:12:04.554Z,101400.41
2023-04-25T12:14:33.639Z,101398.75
2023-04-25T12:17:02.669Z,101409.25
2023-04-25T12:19:31.545Z,101408.63
2023-04-25T12:22:01.036Z,101399.88
2023-04-25T12:24:30.402Z,101396.19
2023-04-25T12:26:59.314Z,101406.22
2023-04-25T12:29:31.746Z,101402.13
2023-04-25T12:32:03.463Z,101404.81
2023-04-25T12:34:32.353Z,101409.44
2023-04-25T12:37:01.460Z,101409.03
2023-04-25T12:39:29.749Z,101406.31
2023-04-25T12:41:58.599Z,101405.25
2023-04-25T12:44:27.137Z,101399.06
2023-04-25T12:46:55.384Z,101397.00
2023-04-25T12:49:23.987Z,101400.38
2023-04-25T12:51:53.152Z,101397.25
2023-04-25T12:54:22.519Z,101403.31
2023-04-25T12:56:51.564Z,101398.78
2023-04-25T12:59:19.582Z,101412.47
2023-04-25T13:01:47.909Z,101399.56
2023-04-25T13:04:17.483Z,101398.28
2023-04-25T13:06:46.916Z,101417.41
2023-04-25T13:09:16.421Z,101403.03
2023-04-25T13:11:45.279Z,101401.28
2023-04-25T13:14:14.532Z,101402.06
2023-04-25T13:16:43.824Z,101399.56
2023-04-25T13:19:13.134Z,101398.47
2023-04-25T13:21:41.826Z,101399.91
2023-04-25T13:24:10.468Z,101406.59
2023-04-25T13:26:39.770Z,101408.19
2023-04-25T13:29:08.637Z,101412.09
2023-04-25T13:31:37.337Z,101400.75
2023-04-25T13:34:07.063Z,101410.69
2023-04-25T13:36:38.359Z,101412.66
2023-04-25T13:39:08.145Z,101415.38
2023-04-25T13:41:36.537Z,101411.91
2023-04-25T13:44:05.542Z,101418.91
2023-04-25T13:46:46.163Z,101416.66
2023-04-25T13:49:16.121Z,101419.78
2023-04-25T13:51:44.964Z,101421.34
2023-04-25T13:54:13.905Z,101434.28
2023-04-25T13:56:43.493Z,101423.16
2023-04-25T13:59:12.825Z,101429.72
2023-04-25T14:01:42.030Z,101437.41
2023-04-25T14:04:10.616Z,101439.19
2023-04-25T14:06:39.355Z,101436.91
2023-04-25T14:09:08.577Z,101437.22
2023-04-25T14:11:37.825Z,101438.53
2023-04-25T14:14:07.126Z,101447.16
2023-04-25T14:16:36.216Z,101430.69
2023-04-25T14:19:05.056Z,101436.66
2023-04-25T14:21:34.032Z,101439.72
2023-04-25T14:24:03.276Z,101435.69
2023-04-25T14:26:32.473Z,101444.16
2023-04-25T14:29:01.774Z,101430.56
2023-04-25T14:31:31.244Z,101435.84
2023-04-25T14:34:00.194Z,101428.16
2023-04-25T14:36:29.071Z,101445.19
2023-04-25T14:38:57.826Z,101444.13
2023-04-25T14:41:27.177Z,101452.13
2023-04-25T14:43:56.447Z,101442.94
2023-04-25T14:46:25.698Z,101444.03
2023-04-25T14:48:55.047Z,101437.66
2023-04-25T14:51:24.397Z,101437.47
2023-04-25T14:53:54.049Z,101442.34
2023-04-25T14:56:23.472Z,101437.59
2023-04-25T14:58:52.799Z,101435.41
2023-04-25T15:01:21.626Z,101444.16
2023-04-25T15:03:51.131Z,101435.59
2023-04-25T15:06:20.877Z,101448.56
2023-04-25T15:08:50.165Z,101443.56
2023-04-25T15:11:19.767Z,101450.72
2023-04-25T15:13:49.543Z,101453.97
2023-04-25T15:16:19.245Z,101455.56
2023-04-25T15:18:48.277Z,101452.88
2023-04-25T15:21:17.092Z,101452.31
2023-04-25T15:23:46.347Z,101460.72
2023-04-25T15:26:15.552Z,101457.44
2023-04-25T15:28:43.785Z,101458.16
2023-04-25T15:31:12.117Z,101469.25
2023-04-25T15:33:41.426Z,101464.72
2023-04-25T15:36:10.710Z,101473.47
2023-04-25T15:38:40.142Z,101468.78
2023-04-25T15:41:09.628Z,101465.53
2023-04-25T15:43:38.321Z,101467.66
2023-04-25T15:46:07.099Z,101465.13
2023-04-25T15:48:36.523Z,101473.31
2023-04-25T15:51:05.436Z,101479.00
2023-04-25T15:53:34.385Z,101463.91
2023-04-25T15:56:03.652Z,101477.25
2023-04-25T15:58:32.980Z,101474.50
2023-04-25T16:01:01.963Z,101479.81
2023-04-25T16:03:32.232Z,101480.47
2023-04-25T16:06:02.895Z,101489.38
2023-04-25T16:08:32.201Z,101498.63
2023-04-25T16:11:01.474Z,101496.50
2023-04-25T16:13:30.816Z,101497.53
2023-04-25T16:15:59.855Z,101493.91
2023-04-25T16:18:29.192Z,101504.06
2023-04-25T16:20:58.625Z,101495.84
2023-04-25T16:23:28.123Z,101501.72
2023-04-25T16:25:57.467Z,101503.88
2023-04-25T16:28:26.608Z,101502.84
2023-04-25T16:30:56.332Z,101502.84
2023-04-25T16:33:25.762Z,101499.94
2023-04-25T16:35:55.376Z,101505.84
2023-04-25T16:38:25.084Z,101503.47
2023-04-25T16:40:54.491Z,101504.16
2023-04-25T16:43:23.095Z,101501.56
2023-04-25T16:45:51.705Z,101523.31
2023-04-25T16:48:20.573Z,101517.56
2023-04-25T16:50:49.918Z,101526.41
2023-04-25T16:53:18.868Z,101526.03
2023-04-25T16:55:47.773Z,101527.06
2023-04-25T16:58:17.112Z,101529.56
2023-04-25T17:00:46.574Z,101530.78
2023-04-25T17:03:15.701Z,101519.88
2023-04-25T17:05:44.803Z,101517.31
2023-04-25T17:08:13.986Z,101519.56
2023-04-25T17:10:43.178Z,101519.91
2023-04-25T17:13:12.456Z,101518.25
2023-04-25T17:15:41.875Z,101524.66
2023-04-25T17:18:11.185Z,101532.47
2023-04-25T17:20:40.596Z,101525.69
2023-04-25T17:23:09.984Z,101524.94
2023-04-25T17:25:39.436Z,101526.69
2023-04-25T17:28:08.850Z,101539.16
2023-04-25T17:30:38.223Z,101547.69
2023-04-25T17:33:07.729Z,101541.91
2023-04-25T17:35:36.693Z,101548.31
2023-04-25T17:38:05.315Z,101542.56
2023-04-25T17:40:33.537Z,101552.84
2023-04-25T17:43:03.094Z,101556.56
2023-04-25T17:45:32.444Z,101556.34
2023-04-25T17:48:01.822Z,101548.84
2023-04-25T17:50:30.936Z,101552.03
2023-04-25T17:52:59.707Z,101558.41
2023-04-25T17:55:29.132Z,101554.09
2023-04-25T17:57:58.112Z,101559.72
2023-04-25T18:00:26.717Z,101557.38
2023-04-25T18:02:56.169Z,101555.72
2023-04-25T18:05:25.572Z,101566.00
2023-04-25T18:07:54.309Z,101557.03
2023-04-25T18:10:23.669Z,101563.41
2023-04-25T18:12:53.112Z,101565.16
2023-04-25T18:15:22.203Z,101568.13
2023-04-25T18:17:51.060Z,101565.78
2023-04-25T18:20:20.578Z,101573.56
2023-04-25T18:22:49.995Z,101576.06
2023-04-25T18:25:18.775Z,101579.00
2023-04-25T18:27:48.087Z,101572.50
2023-04-25T18:30:17.489Z,101581.53
2023-04-25T18:32:46.915Z,101587.91
2023-04-25T18:35:15.654Z,101598.16
2023-04-25T18:37:44.333Z,101598.47
2023-04-25T18:40:13.379Z,101598.03
2023-04-25T18:42:41.682Z,101594.44
2023-04-25T18:45:10.521Z,101603.97
2023-04-25T18:47:39.844Z,101603.06
2023-04-25T18:50:08.826Z,101606.72
2023-04-25T18:52:37.130Z,101603.63
2023-04-25T18:55:05.325Z,101617.97
2023-04-25T18:57:34.088Z,101621.19
2023-04-25T19:00:02.673Z,101617.53
2023-04-25T19:02:31.509Z,101613.22
2023-04-25T19:05:00.538Z,101612.81
2023-04-25T19:07:29.303Z,101620.59
2023-04-25T19:09:58.112Z,101616.25
2023-04-25T19:12:26.541Z,101630.84
2023-04-25T19:14:55.607Z,101615.81
2023-04-25T19:17:24.200Z,101629.69
2023-04-25T19:19:52.407Z,101627.53
2023-04-25T19:22:21.874Z,101623.19
2023-04-25T19:24:59.319Z,101630.97
2023-04-25T19:27:38.423Z,101629.53
2023-04-25T19:30:07.392Z,101626.66
2023-04-25T19:32:36.328Z,101641.22
2023-04-25T19:35:04.960Z,101642.19
2023-04-25T19:37:32.800Z,101642.69
2023-04-25T19:40:01.753Z,101644.63
2023-04-25T19:42:31.093Z,101640.31
2023-04-25T19:45:00.202Z,101644.19
2023-04-25T19:47:28.532Z,101640.13
2023-04-25T19:49:57.527Z,101645.22
2023-04-25T19:52:26.349Z,101645.03
2023-04-25T19:54:55.553Z,101649.09
2023-04-25T19:57:24.948Z,101650.13
2023-04-25T19:59:53.841Z,101654.00
2023-04-25T20:02:22.706Z,101652.59
2023-04-25T20:04:51.515Z,101654.28
2023-04-25T20:07:20.116Z,101652.16
2023-04-25T20:09:48.577Z,101650.69
2023-04-25T20:12:17.295Z,101651.91
2023-04-25T20:14:46.125Z,101654.56
2023-04-25T20:17:14.909Z,101662.38
2023-04-25T20:19:43.358Z,101650.22
2023-04-25T20:22:11.926Z,101659.47
2023-04-25T20:24:40.945Z,101667.47
2023-04-25T20:27:09.638Z,101667.28
2023-04-25T20:29:38.947Z,101668.97
2023-04-25T20:32:07.818Z,101665.56
2023-04-25T20:34:36.822Z,101662.16
2023-04-25T20:37:05.084Z,101660.75
2023-04-25T20:39:34.563Z,101659.28
2023-04-25T20:42:03.472Z,101662.47
2023-04-25T20:44:32.783Z,101657.13
2023-04-25T20:47:02.199Z,101655.69
2023-04-25T20:49:31.043Z,101664.91
2023-04-25T20:52:00.235Z,101664.91
2023-04-25T20:54:29.592Z,101671.22
2023-04-25T20:56:58.656Z,101677.28
2023-04-25T20:59:27.993Z,101669.81
2023-04-25T21:01:57.362Z,101673.69
2023-04-25T21:04:26.428Z,101676.09
2023-04-25T21:06:55.300Z,101670.78
2023-04-25T21:09:24.697Z,101675.44
2023-04-25T21:11:53.591Z,101672.03
2023-04-25T21:14:22.551Z,101669.84
2023-04-25T21:16:50.670Z,101672.53
2023-04-25T21:19:19.504Z,101675.66
2023-04-25T21:21:48.908Z,101673.00
2023-04-25T21:24:18.327Z,101668.91
2023-04-25T21:26:47.666Z,101669.88
2023-04-25T21:29:16.414Z,101674.53
2023-04-25T21:31:45.790Z,101673.28
2023-04-25T21:34:14.689Z,101665.78
2023-04-25T21:36:43.567Z,101667.72
2023-04-25T21:39:12.603Z,101666.03
2023-04-25T21:41:40.741Z,101668.72
2023-04-25T21:44:10.109Z,101668.00
2023-04-25T21:46:39.252Z,101671.88
2023-04-25T21:49:07.673Z,101670.44
2023-04-25T21:51:36.448Z,101675.03
2023-04-25T21:54:05.875Z,101668.97
2023-04-25T21:56:34.840Z,101670.22
2023-04-25T21:59:03.466Z,101672.91
2023-04-25T22:01:32.755Z,101676.75
2023-04-25T22:04:02.146Z,101668.03
2023-04-25T22:06:31.642Z,101671.44
2023-04-25T22:09:01.043Z,101666.38
2023-04-25T22:11:30.299Z,101671.72
2023-04-25T22:13:59.503Z,101681.66
2023-04-25T22:16:28.941Z,101670.97
2023-04-25T22:18:57.895Z,101674.88
2023-04-25T22:21:26.724Z,101685.53
2023-04-25T22:23:56.079Z,101684.06
2023-04-25T22:26:25.375Z,101686.53
2023-04-25T22:28:54.914Z,101689.19
2023-04-25T22:31:24.307Z,101690.44
2023-04-25T22:33:53.298Z,101695.03
2023-04-25T22:36:22.619Z,101698.91
2023-04-25T22:38:52.144Z,101698.16
2023-04-25T22:41:21.719Z,101700.81
2023-04-25T22:43:50.972Z,101702.09
2023-04-25T22:46:20.441Z,101699.91
2023-04-25T22:48:49.533Z,101705.94
2023-04-25T22:51:18.976Z,101703.78
2023-04-25T22:53:47.846Z,101697.03
2023-04-25T22:56:16.854Z,101704.28
2023-04-25T22:58:45.474Z,101705.50
2023-04-25T23:01:15.784Z,101710.81
2023-04-25T23:03:47.040Z,101704.78
2023-04-25T23:06:16.714Z,101704.06
2023-04-25T23:08:46.115Z,101701.16
2023-04-25T23:11:15.358Z,101705.03
2023-04-25T23:13:44.718Z,101704.31
2023-04-25T23:16:13.773Z,101708.94
2023-04-25T23:18:42.495Z,101703.59
2023-04-25T23:21:11.893Z,101702.88
2023-04-25T23:23:41.429Z,101708.72
2023-04-25T23:26:10.782Z,101704.56
2023-04-25T23:28:41.629Z,101703.88
2023-04-25T23:31:10.851Z,101709.66
2023-04-25T23:33:39.611Z,101712.34
2023-04-25T23:36:08.895Z,101705.59
2023-04-25T23:38:38.281Z,101709.47
2023-04-25T23:41:07.484Z,101705.59
2023-04-25T23:43:36.220Z,101702.69
2023-04-25T23:46:05.107Z,101700.00
2023-04-25T23:48:33.845Z,101692.72
2023-04-25T23:51:02.580Z,101701.94
2023-04-25T23:53:31.484Z,101701.22
2023-04-25T23:56:00.823Z,101710.44
2023-04-25T23:58:29.597Z,101705.09
